Flight Track Log - Related Links

Times and Time Zones

All times are in EDT time to prevent confusion due to time zone crossing. See the N762NC flight status page for this flight to view local times or setup timezone preferences in your user account.

Time Position Orientation Groundspeed Altitude Reporting Facility
EDT Latitude Longitude Course Direction KTS MPH feet Rate Location/Type
Sun 07:08:23 AM 34.7411 -92.2172 79° East 161 185 900  Level Memphis Center
Sun 07:09:35 AM 34.7444 -92.1339 87° East 218 251 2,700 1,455 Climbing Memphis Center
Sun 07:10:35 AM 34.7414 -92.0581 93° East 248 285 4,100 2,281 Climbing Memphis Center
Sun 07:11:00 AM 34.7358 -91.7521 78° East  Level FlightAware Approximate
Sun 07:11:36 AM 34.7425 -91.9619 89° East 280 322 7,300  Level Memphis Center
Sun 07:12:00 AM 34.7566 -91.6271 78° East  Level FlightAware Approximate
Sun 07:12:06 AM 34.7453 -91.9217 85° East 283 326 8,200  Level Memphis Center
Sun 07:13:00 AM 34.7774 -91.5021 79° East  Level FlightAware Approximate
Sun 07:13:06 AM 34.7422 -91.8281 92° East 278 320 10,500  Level Memphis Center
Sun 07:14:06 AM 34.7456 -91.7117 88° East 304 350 12,200 2,300 Climbing Memphis Center
Sun 07:15:06 AM 34.7572 -91.5958 83° East 336 387 15,100 2,450 Climbing Memphis Center
Sun 07:16:06 AM 34.7708 -91.4744 82° East 357 411 17,100 2,000 Climbing Memphis Center
Sun 07:17:06 AM 34.7886 -91.3533 80° East 362 417 19,100 1,950 Climbing Memphis Center
Sun 07:18:06 AM 34.8061 -91.2247 81° East 377 434 21,000 1,800 Climbing Memphis Center
Sun 07:19:06 AM 34.8364 -91.0858 75° East 382 440 22,700 1,750 Climbing Memphis Center
Sun 07:20:06 AM 34.8642 -90.9594 75° East 382 440 24,500 1,550 Climbing Memphis Center
Sun 07:21:06 AM 34.8875 -90.8231 78° East 394 453 25,800 1,450 Climbing Memphis Center
Sun 07:22:06 AM 34.9131 -90.6889 77° East 399 459 27,400 1,300 Climbing Memphis Center
Sun 07:23:06 AM 34.9383 -90.5522 77° East 412 474 28,400 800 Climbing Memphis Center
Sun 07:24:06 AM 34.9553 -90.4053 82° East 420 483 29,000 300 Climbing Memphis Center
Sun 07:25:06 AM 34.9781 -90.2583 79° East 435 501 29,000  Level Memphis Center
Sun 07:26:06 AM 35.0031 -90.1136 78° East 440 506 29,000  Level Memphis Center
Sun 07:27:06 AM 35.0089 -89.9819 87° East 440 506 29,000  Level Memphis Center
Sun 07:28:06 AM 35.0000 -89.8322 94° East 434 499 29,000  Level Memphis Center
Sun 07:29:06 AM 34.9722 -89.6806 103° East 449 517 29,000  Level Memphis Center
Sun 07:30:06 AM 34.9419 -89.5211 103° East 449 517 29,000  Level Memphis Center
Sun 07:31:06 AM 34.9200 -89.3769 100° East 439 505 29,000  Level Memphis Center
Sun 07:32:06 AM 34.9000 -89.2328 100° East 431 496 29,000  Level Memphis Center
Sun 07:33:06 AM 34.8819 -89.0839 98° East 431 496 29,000  Level Memphis Center
Sun 07:34:06 AM 34.8572 -88.9425 102° East 431 496 29,000  Level Memphis Center
Sun 07:35:06 AM 34.8306 -88.7961 102° East 431 496 29,000  Level Memphis Center
Sun 07:36:06 AM 34.8081 -88.6650 102° East 431 496 29,000  Level Memphis Center
Sun 07:37:06 AM 34.7831 -88.5239 102° East 431 496 29,000  Level Memphis Center
Sun 07:38:06 AM 34.7558 -88.3831 103° East 431 496 29,000  Level Memphis Center
Sun 07:39:06 AM 34.7303 -88.2344 102° East 437 503 29,000  Level Memphis Center
Sun 07:40:06 AM 34.7047 -88.0811 101° East 453 521 29,000  Level Memphis Center
Sun 07:41:06 AM 34.6811 -87.9350 101° East 453 521 29,000  Level Memphis Center
Sun 07:42:06 AM 34.6550 -87.7844 102° East 453 521 29,000  Level Memphis Center
Sun 07:43:06 AM 34.6286 -87.6211 101° East 446 513 29,000  Level Memphis Center
Sun 07:44:06 AM 34.6044 -87.4756 101° East 446 513 29,000  Level Memphis Center
Sun 07:45:33 AM 34.5725 -87.2553 100° East 464 534 29,000  Level Atlanta Center
Sun 07:46:33 AM 34.5492 -87.1006 100° East 464 534 29,000  Level Atlanta Center
Sun 07:47:33 AM 34.5256 -86.9558 101° East 458 527 29,000  Level Atlanta Center
Sun 07:48:33 AM 34.5000 -86.8039 101° East 453 521 29,000  Level Atlanta Center
Sun 07:49:33 AM 34.4761 -86.6519 101° East 453 521 29,000 -600 Level Atlanta Center
Sun 07:50:33 AM 34.4500 -86.5000 102° East 453 521 27,800 -1,150 Descending Atlanta Center
Sun 07:51:33 AM 34.4239 -86.3506 102° East 453 521 26,700 -1,150 Descending Atlanta Center
Sun 07:52:33 AM 34.3972 -86.2014 102° East 448 516 25,500 -1,100 Descending Atlanta Center
Sun 07:53:33 AM 34.3664 -86.0544 104° East 448 516 24,500 -900 Descending Atlanta Center
Sun 07:54:33 AM 34.3394 -85.9081 103° East 448 516 23,700 -1,550 Descending Atlanta Center
Sun 07:55:33 AM 34.3206 -85.7667 99° East 440 506 21,400 -1,950 Descending Atlanta Center
Sun 07:56:33 AM 34.2892 -85.6328 106° East 417 480 19,800 -1,800 Descending Atlanta Center
Sun 07:57:33 AM 34.2572 -85.5014 106° East 412 474 17,800 -1,650 Descending Atlanta Center
Sun 07:58:33 AM 34.2253 -85.3878 109° East 401 461 16,500 -1,600 Descending Atlanta Center
Sun 07:59:33 AM 34.1911 -85.2644 108° East 390 449 14,600 -1,200 Descending Atlanta Center
Sun 08:00:33 AM 34.1711 -85.1536 102° East 360 414 14,100 -700 Descending Atlanta Center
Sun 08:01:33 AM 34.1533 -85.0581 103° East 308 354 13,200 -600 Descending Atlanta Center
Sun 08:02:33 AM 34.0847 -85.0019 146° Southeast 274 315 12,900 -1,200 Descending Atlanta Center
Sun 08:03:33 AM 34.0036 -84.9683 161° South 290 334 10,800 -1,350 Descending Atlanta Center
Sun 08:04:33 AM 33.9267 -84.9450 166° South 290 334 10,200 -750 Descending Atlanta Center
Sun 08:05:33 AM 33.8558 -84.9294 170° South 273 314 9,300 -600 Descending Atlanta Center
Sun 08:06:33 AM 33.7786 -84.9136 170° South 261 300 9,000 -600 Descending Atlanta Center
Sun 08:07:33 AM 33.7097 -84.9003 171° South 256 295 8,100 -740 Descending Atlanta Center
Sun 08:08:59 AM 33.6333 -84.8500 151° Southeast 198 228 7,200 -740 Descending Atlanta TRACON
Sun 08:09:59 AM 33.6333 -84.7833 90° East 187 215 6,300 -800 Descending Atlanta TRACON
Sun 08:10:59 AM 33.6333 -84.7333 90° East 175 201 5,600 -850 Descending Atlanta TRACON
Sun 08:11:59 AM 33.6333 -84.6833 90° East 164 189 4,600 -900 Descending Atlanta TRACON
Sun 08:12:59 AM 33.6333 -84.6167 90° East 159 183 3,800 -800 Descending Atlanta TRACON
Sun 08:13:59 AM 33.6333 -84.5667 90° East 155 178 3,000 -810 Descending Atlanta TRACON
Sun 08:15:05 AM 33.6333 -84.5167 90° East 130 150 2,100 -714 Descending Atlanta TRACON
Sun 08:16:05 AM 33.6333 -84.4833 90° East 119 137 1,500 -600 Descending Atlanta TRACON

Login

Don't have an account? Register now (free) for customized features, flight alerts, and more!